createdAt,value
2018-08-30T06:31:15.456Z,55.9
2018-08-30T06:31:25.842Z,56.5
2018-08-30T06:32:16.217Z,56.6
2018-08-30T06:33:06.233Z,57.1
2018-08-30T06:33:56.309Z,57.6
2018-08-30T06:34:46.563Z,58.1
2018-08-30T06:35:36.152Z,58.4
2018-08-30T06:36:26.314Z,58.8
2018-08-30T06:37:15.777Z,59.2
2018-08-30T06:38:06.066Z,59.7
2018-08-30T06:38:56.642Z,59.9
2018-08-30T06:39:46.486Z,60.3
2018-08-30T06:40:36.838Z,60.8
2018-08-30T06:41:27.002Z,61.2
2018-08-30T06:42:16.958Z,61.6
2018-08-30T06:43:07.026Z,62
2018-08-30T06:43:57.282Z,62.4
2018-08-30T06:44:46.854Z,62.8
2018-08-30T06:45:36.937Z,63.3
2018-08-30T06:46:26.984Z,63.7
2018-08-30T06:47:17.341Z,64.1
2018-08-30T06:48:07.394Z,64.6
2018-08-30T06:48:57.406Z,65.1
2018-08-30T06:49:47.583Z,66.8
2018-08-30T06:50:37.600Z,64.9
2018-08-30T06:51:27.663Z,61.8
2018-08-30T06:52:17.755Z,56.4
2018-08-30T06:53:07.781Z,51.7
2018-08-30T06:53:57.556Z,49.7
2018-08-30T06:54:47.616Z,48.8
2018-08-30T06:55:37.966Z,48.3
2018-08-30T06:56:28.803Z,48.1
2018-08-30T06:57:17.848Z,48.3
2018-08-30T06:58:08.183Z,49
2018-08-30T06:58:57.936Z,49.9
2018-08-30T06:59:48.314Z,51
2018-08-30T07:00:38.096Z,52.1
2018-08-30T07:01:28.456Z,53.2
2018-08-30T07:02:18.468Z,54.4
2018-08-30T07:03:07.991Z,55.4
2018-08-30T07:03:58.714Z,56.4
2018-08-30T07:04:47.936Z,57.5
2018-08-30T07:06:28.813Z,59.6
2018-08-30T07:07:18.592Z,60.6
2018-08-30T07:08:09.018Z,61.6
2018-08-30T07:08:59.002Z,62.5
2018-08-30T07:09:48.765Z,63.3
2018-08-30T07:10:38.855Z,64.1
2018-08-30T07:11:29.184Z,65
2018-08-30T07:12:19.271Z,66.3
2018-08-30T07:13:09.037Z,67.6
2018-08-30T07:13:59.442Z,64.3
2018-08-30T07:14:49.268Z,61.2
2018-08-30T07:15:39.507Z,57.5
2018-08-30T07:16:29.304Z,54.7
2018-08-30T07:17:19.881Z,53.5
2018-08-30T07:18:09.154Z,53.2
2018-08-30T07:18:59.484Z,53.6
2018-08-30T07:19:49.545Z,54.4
2018-08-30T07:20:39.891Z,55.4
2018-08-30T07:21:29.987Z,56.6
2018-08-30T07:22:20.032Z,57.8
2018-08-30T07:23:10.124Z,59.1
2018-08-30T07:24:00.403Z,60.3
2018-08-30T07:24:49.942Z,61.5
2018-08-30T07:25:40.291Z,62.6
2018-08-30T07:26:30.064Z,63.8
2018-08-30T07:27:20.416Z,65
2018-08-30T07:28:10.516Z,67.3
2018-08-30T07:29:00.289Z,66.1
2018-08-30T07:29:50.391Z,64.4
2018-08-30T07:30:40.674Z,62.8
2018-08-30T07:31:30.737Z,60.2
2018-08-30T07:33:10.868Z,56.5
2018-08-30T07:34:00.882Z,56.6
2018-08-30T07:34:51.554Z,57.3
2018-08-30T07:35:41.066Z,58.4
2018-08-30T07:36:30.858Z,59.7
2018-08-30T07:37:21.683Z,61.1
2018-08-30T07:38:11.257Z,62.6
2018-08-30T07:39:01.318Z,63.8
2018-08-30T07:39:51.391Z,65.4
2018-08-30T07:40:41.168Z,67.3
2018-08-30T07:41:31.519Z,66.2
2018-08-30T07:42:21.586Z,65.3
2018-08-30T07:43:11.351Z,63.2
2018-08-30T07:44:01.731Z,60.2
2018-08-30T07:44:51.769Z,58.3
2018-08-30T07:45:41.834Z,58.2
2018-08-30T07:46:31.610Z,59.2
2018-08-30T07:47:22.619Z,60.2
2018-08-30T07:48:12.028Z,60.9
2018-08-30T07:49:02.096Z,61.1
2018-08-30T07:49:52.158Z,60.7
2018-08-30T07:50:42.293Z,60.1
2018-08-30T07:51:32.284Z,59.7
2018-08-30T07:52:22.344Z,59.8
2018-08-30T07:53:12.421Z,59.9
2018-08-30T07:54:02.485Z,60.3
2018-08-30T07:54:52.529Z,60.6
2018-08-30T07:55:42.598Z,60.7
2018-08-30T07:56:32.676Z,60.6
2018-08-30T07:57:22.734Z,60.5
2018-08-30T07:58:12.542Z,60.4
2018-08-30T07:59:02.582Z,60.3
2018-08-30T07:59:53.284Z,60.4
2018-08-30T08:00:42.695Z,60.4
2018-08-30T08:01:33.057Z,60.6
2018-08-30T08:02:22.542Z,60.6
2018-08-30T08:03:13.147Z,60.6
2018-08-30T08:04:03.516Z,60.6
2018-08-30T08:04:53.309Z,60.6
2018-08-30T08:05:43.364Z,60.6
2018-08-30T08:06:33.188Z,60.9
2018-08-30T08:07:23.301Z,61
2018-08-30T08:08:13.290Z,61.1
2018-08-30T08:09:03.399Z,61.3
2018-08-30T08:09:53.716Z,61.2
2018-08-30T08:10:43.289Z,61.3
2018-08-30T08:11:33.348Z,61.4
2018-08-30T08:12:23.888Z,61.6
2018-08-30T08:13:13.978Z,61.7
2018-08-30T08:14:03.451Z,61.8
2018-08-30T08:14:53.812Z,61.9
2018-08-30T08:15:43.880Z,62
2018-08-30T08:16:34.218Z,62
2018-08-30T08:17:23.985Z,62.1
2018-08-30T08:18:14.053Z,62.3
2018-08-30T08:19:04.529Z,62.4
2018-08-30T08:19:54.442Z,62.6
2018-08-30T08:20:44.540Z,62.7
2018-08-30T08:21:34.603Z,62.8
2018-08-30T08:22:24.675Z,62.9
2018-08-30T08:23:14.728Z,63
2018-08-30T08:24:04.520Z,63.1
2018-08-30T08:24:55.321Z,63.3
2018-08-30T08:25:45.233Z,63.3
2018-08-30T08:26:34.712Z,63.3
2018-08-30T08:27:25.065Z,63.4
2018-08-30T08:28:15.120Z,63.6
2018-08-30T08:29:05.233Z,63.8
2018-08-30T08:29:55.315Z,63.9
2018-08-30T08:30:45.327Z,64
2018-08-30T08:31:35.095Z,64.1
2018-08-30T08:32:25.439Z,64.3
2018-08-30T08:33:15.512Z,64.4
2018-08-30T08:34:05.825Z,64.6
2018-08-30T08:34:55.893Z,64.5
2018-08-30T08:35:45.705Z,64.5
2018-08-30T08:36:36.037Z,64.8
2018-08-30T08:37:25.566Z,65
2018-08-30T08:38:15.617Z,65.2
2018-08-30T08:39:05.974Z,65.3
2018-08-30T08:39:56.019Z,65.3
2018-08-30T08:40:46.083Z,65.4
2018-08-30T08:41:36.189Z,65.4
2018-08-30T08:42:26.211Z,65.4
2018-08-30T08:43:16.279Z,65.6
2018-08-30T08:44:06.639Z,65.8
2018-08-30T08:44:56.403Z,65.9
2018-08-30T08:45:46.707Z,66.1
2018-08-30T08:46:36.541Z,66.3
2018-08-30T08:47:26.634Z,66.4
2018-08-30T08:48:16.391Z,66.4
2018-08-30T08:49:06.454Z,66.6
2018-08-30T08:49:56.803Z,66.7
2018-08-30T08:50:46.869Z,66.8
2018-08-30T08:51:36.674Z,66.9
2018-08-30T08:52:26.726Z,67.1
2018-08-30T08:53:17.071Z,67.1
2018-08-30T08:54:07.150Z,67.3
2018-08-30T08:54:57.178Z,67.4
2018-08-30T08:55:46.986Z,67.4
2018-08-30T08:56:37.355Z,67.4
2018-08-30T08:57:26.816Z,67.4
2018-08-30T08:58:17.466Z,67.7
2018-08-30T09:14:40.673Z,69.6
2018-08-30T09:15:29.897Z,69.6
2018-08-30T09:16:19.708Z,69.7
2018-08-30T09:17:10.020Z,69.8
2018-08-30T09:17:59.613Z,69.8
2018-08-30T09:18:49.878Z,69.8
2018-08-30T09:19:40.241Z,70
2018-08-30T09:20:29.732Z,70.1
2018-08-30T09:21:19.861Z,70.3
2018-08-30T09:22:10.130Z,70.2
2018-08-30T09:22:59.965Z,70.3
2018-08-30T09:23:50.545Z,70.3
2018-08-30T09:24:40.343Z,70.4
2018-08-30T09:25:30.717Z,70.6
2018-08-30T09:26:20.761Z,70.6
2018-08-30T09:27:11.148Z,70.6
2018-08-30T09:28:00.312Z,70.7
2018-08-30T09:28:50.930Z,70.7
2018-08-30T09:29:40.720Z,70.8
2018-08-30T09:30:30.789Z,70.9
2018-08-30T09:31:21.127Z,71.1
2018-08-30T09:32:11.204Z,71.1
2018-08-30T09:33:01.239Z,71.2
2018-08-30T09:33:51.049Z,71.3
2018-08-30T09:34:41.407Z,71.3
2018-08-30T09:35:31.176Z,71.2
2018-08-30T09:36:21.237Z,70.9
2018-08-30T09:37:11.818Z,70.8
2018-08-30T09:38:01.382Z,70.6
2018-08-30T09:38:51.440Z,70.6
2018-08-30T09:39:41.777Z,70.5
2018-08-30T09:40:31.840Z,70.8
2018-08-30T09:41:21.639Z,70.9
2018-08-30T09:42:12.026Z,71.1
2018-08-30T09:43:01.785Z,71.3
2018-08-30T09:43:52.705Z,71.4
2018-08-30T09:44:41.896Z,71.6
2018-08-30T09:45:31.956Z,71.6
2018-08-30T09:46:22.296Z,71.6
2018-08-30T09:47:11.792Z,71.6
2018-08-30T09:48:02.438Z,71.6
2018-08-30T09:48:52.228Z,71.4
2018-08-30T09:49:43.031Z,71.3
2018-08-30T09:50:32.346Z,71.3
2018-08-30T09:51:22.083Z,71.5
2018-08-30T09:52:13.009Z,71.6
2018-08-30T09:53:02.533Z,71.7
2018-08-30T09:53:52.598Z,71.8
2018-08-30T09:54:42.688Z,71.9
2018-08-30T09:55:32.809Z,71.9
2018-08-30T09:56:23.352Z,71.9
2018-08-30T09:57:13.509Z,71.9
2018-08-30T09:58:02.946Z,71.9
2018-08-30T09:58:53.267Z,71.9
2018-08-30T09:59:43.361Z,71.9
2018-08-30T10:00:33.425Z,72
2018-08-30T10:01:23.419Z,72
2018-08-30T10:02:13.539Z,72.1
2018-08-30T10:03:03.062Z,72.3
2018-08-30T10:03:54.401Z,72.4
2018-08-30T10:04:44.427Z,72.5
2018-08-30T10:05:33.250Z,72.7
2018-08-30T10:06:23.872Z,72.8
2018-08-30T10:07:13.652Z,72.8
2018-08-30T10:08:04.002Z,72.9
2018-08-30T10:08:53.289Z,72.9
2018-08-30T10:09:44.113Z,72.9
2018-08-30T10:10:34.179Z,73.1
2018-08-30T10:11:24.252Z,73.3
2018-08-30T10:12:14.037Z,73.3
2018-08-30T10:13:04.117Z,73.2
2018-08-30T10:13:54.451Z,73.2
2018-08-30T10:14:44.239Z,73.1
2018-08-30T10:15:34.396Z,72.9
2018-08-30T10:16:24.164Z,72.7
2018-08-30T10:17:14.766Z,72.6
2018-08-30T10:18:04.724Z,72.5
2018-08-30T10:18:54.882Z,72.5
2018-08-30T10:19:44.618Z,72.7
2018-08-30T10:20:34.968Z,72.8
2018-08-30T10:21:24.973Z,72.8
2018-08-30T10:22:15.131Z,72.8
2018-08-30T10:23:04.664Z,72.9
2018-08-30T10:23:54.976Z,72.8
2018-08-30T10:24:45.297Z,72.7
2018-08-30T10:25:35.504Z,72.7
2018-08-30T10:26:25.416Z,72.7
2018-08-30T10:27:15.483Z,72.8
2018-08-30T10:28:05.597Z,72.7
2018-08-30T10:28:55.063Z,72.6
2018-08-30T10:29:45.403Z,72.8
2018-08-30T10:30:36.188Z,72.9
2018-08-30T10:31:25.768Z,72.9
2018-08-30T10:32:15.886Z,72.9
2018-08-30T10:33:06.014Z,72.8
2018-08-30T10:33:55.743Z,72.9
2018-08-30T10:34:45.790Z,73
2018-08-30T10:35:36.146Z,73.1
2018-08-30T10:36:26.205Z,73.3
2018-08-30T10:37:15.993Z,73.4
2018-08-30T10:38:06.593Z,73.4
2018-08-30T10:38:56.385Z,73.6
2018-08-30T10:39:46.457Z,73.6
2018-08-30T10:40:36.523Z,73.4
2018-08-30T10:41:26.598Z,73.3
2018-08-30T10:42:16.697Z,73.3
2018-08-30T10:43:07.253Z,73.4
2018-08-30T10:43:56.268Z,73.4
2018-08-30T10:44:46.867Z,73.4
2018-08-30T10:45:36.082Z,73.3
2018-08-30T10:46:26.989Z,73.3
2018-08-30T10:47:16.787Z,73.3
2018-08-30T10:48:07.375Z,73.3
2018-08-30T10:48:57.197Z,73.3
2018-08-30T10:49:46.905Z,73.3
2018-08-30T10:50:37.313Z,73.3
2018-08-30T10:51:27.391Z,73.4
2018-08-30T10:52:17.434Z,73.5
2018-08-30T10:53:07.470Z,73.6
2018-08-30T10:53:57.565Z,73.6
2018-08-30T10:54:47.639Z,73.6
2018-08-30T10:55:37.155Z,73.8
2018-08-30T10:56:28.587Z,73.9
2018-08-30T10:57:18.060Z,74
2018-08-30T10:58:09.227Z,74.1
2018-08-30T10:58:57.987Z,74.2
2018-08-30T10:59:47.954Z,74.2
2018-08-30T11:00:38.489Z,74.3
2018-08-30T11:01:28.382Z,74.3
2018-08-30T11:02:17.947Z,74.1
2018-08-30T11:03:08.746Z,74.1
2018-08-30T11:03:58.590Z,74
2018-08-30T11:04:49.647Z,73.8
2018-08-30T11:05:38.212Z,73.6
2018-08-30T11:06:32.519Z,73.5
2018-08-30T11:07:19.757Z,73.3
2018-08-30T11:08:09.405Z,73.2
2018-08-30T11:08:58.468Z,73.3
2018-08-30T11:09:49.948Z,73.4
2018-08-30T11:10:39.526Z,73.4
2018-08-30T11:11:29.334Z,73.6
2018-08-30T11:12:18.904Z,73.8
2018-08-30T11:13:10.710Z,73.9
2018-08-30T11:13:59.564Z,73.8
2018-08-30T11:14:49.802Z,73.6
2018-08-30T11:15:39.000Z,73.6
2018-08-30T11:16:30.051Z,73.8
2018-08-30T11:17:20.043Z,73.9
2018-08-30T11:18:09.641Z,73.8
2018-08-30T11:18:59.475Z,73.9
2018-08-30T11:19:49.323Z,73.9
2018-08-30T11:20:39.668Z,74
2018-08-30T11:21:30.244Z,73.8
2018-08-30T11:22:19.795Z,73.5
2018-08-30T11:23:10.072Z,73.5
2018-08-30T11:24:00.522Z,73.6
2018-08-30T11:24:51.238Z,73.8
2018-08-30T11:25:40.809Z,74
2018-08-30T11:26:30.462Z,74.1
2018-08-30T11:27:19.927Z,74.2
2018-08-30T11:28:09.972Z,74.3
2018-08-30T11:29:00.634Z,74.3
2018-08-30T11:29:49.849Z,74.3
2018-08-30T11:30:40.152Z,74.2
2018-08-30T11:31:29.970Z,74
2018-08-30T11:32:20.569Z,73.9
2018-08-30T11:33:10.553Z,74.1
2018-08-30T11:34:00.729Z,74.3
2018-08-30T11:34:50.810Z,74.4
2018-08-30T11:35:40.845Z,74.5
2018-08-30T11:36:30.624Z,74.6
2018-08-30T11:37:20.972Z,74.8
2018-08-30T11:38:10.532Z,74.7
2018-08-30T11:39:00.258Z,74.7
2018-08-30T11:39:51.149Z,74.8
2018-08-30T11:40:40.989Z,74.9
2018-08-30T11:41:32.253Z,74.8
2018-08-30T11:42:21.342Z,74.7
2018-08-30T11:43:11.380Z,74.6
2018-08-30T11:44:01.787Z,74.8
2018-08-30T11:44:51.559Z,74.8
2018-08-30T11:45:42.038Z,74.6
2018-08-30T11:46:31.587Z,74.6
2018-08-30T11:47:21.471Z,74.6
2018-08-30T11:48:11.263Z,74.6
2018-08-30T11:49:01.325Z,74.7
2018-08-30T11:49:51.654Z,74.8
2018-08-30T11:50:41.731Z,74.8
2018-08-30T11:51:32.098Z,74.7
2018-08-30T11:52:22.068Z,74.6
2018-08-30T11:53:11.973Z,74.5
2018-08-30T11:54:01.987Z,74.6
2018-08-30T11:54:52.339Z,74.6
2018-08-30T11:55:42.391Z,74.6
2018-08-30T11:56:32.528Z,74.5
2018-08-30T11:57:22.256Z,74.4
2018-08-30T11:58:12.298Z,74.3
2018-08-30T11:59:02.655Z,74.3
2018-08-30T11:59:52.730Z,74.3
2018-08-30T12:00:42.997Z,74.3
2018-08-30T12:01:32.581Z,74.2
2018-08-30T12:02:23.157Z,74.2
2018-08-30T12:03:13.061Z,74.3
2018-08-30T12:04:02.771Z,74.3
2018-08-30T12:04:53.445Z,74.2
2018-08-30T12:05:42.595Z,74.1
2018-08-30T12:06:32.975Z,73.9
2018-08-30T12:07:23.347Z,73.8
2018-08-30T12:08:13.260Z,73.8
2018-08-30T12:09:02.869Z,73.5
2018-08-30T12:10:08.418Z,73.4
2018-08-30T12:10:43.708Z,73.4
2018-08-30T12:11:33.751Z,73.4
2018-08-30T12:12:23.720Z,73.3
2018-08-30T12:13:13.488Z,73.1
2018-08-30T12:14:03.274Z,73.2
2018-08-30T12:14:53.623Z,73.3
2018-08-30T12:15:43.939Z,73.2
2018-08-30T12:16:34.069Z,73.2
2018-08-30T12:17:24.110Z,73.1
2018-08-30T12:18:14.580Z,73.1
2018-08-30T12:19:03.379Z,73.1
2018-08-30T12:19:54.301Z,73
2018-08-30T12:20:45.176Z,73.1
2018-08-30T12:21:49.329Z,72.9
2018-08-30T12:22:24.473Z,72.6
2018-08-30T12:23:14.276Z,72.3
2018-08-30T12:24:04.612Z,72.1
2018-08-30T12:24:54.409Z,72.1
2018-08-30T12:25:44.728Z,72.2
2018-08-30T12:26:34.828Z,72.4
2018-08-30T12:27:24.687Z,72.5
2018-08-30T12:28:14.509Z,72.6
2018-08-30T12:29:05.281Z,72.6
2018-08-30T12:29:54.971Z,72.5
2018-08-30T12:30:45.028Z,72.3
2018-08-30T12:31:35.798Z,72.1
2018-08-30T12:32:25.550Z,72.1
2018-08-30T12:33:15.611Z,72.1
2018-08-30T12:34:05.577Z,71.9
2018-08-30T12:34:55.495Z,71.8
2018-08-30T12:35:46.122Z,71.8
2018-08-30T12:36:35.428Z,71.7
2018-08-30T12:37:26.049Z,71.7
2018-08-30T12:38:15.899Z,71.8
2018-08-30T12:39:05.638Z,71.8
2018-08-30T12:39:57.008Z,71.7
2018-08-30T12:40:45.575Z,71.6
2018-08-30T12:41:35.964Z,71.5
2018-08-30T12:42:26.138Z,71.4
2018-08-30T12:43:16.096Z,71.4
2018-08-30T12:44:06.332Z,71.4
2018-08-30T12:44:56.425Z,71.4
2018-08-30T12:45:45.910Z,71.3
2018-08-30T12:46:36.382Z,71
2018-08-30T12:47:25.988Z,70.9
2018-08-30T12:48:16.625Z,70.8
2018-08-30T12:49:06.396Z,70.5
2018-08-30T12:49:56.731Z,70.1
2018-08-30T12:50:48.089Z,70.2
2018-08-30T12:51:39.097Z,70.3
2018-08-30T12:52:27.297Z,70.4
2018-08-30T12:53:17.506Z,70.2
2018-08-30T12:54:08.659Z,70.2
2018-08-30T12:54:57.504Z,70.3
2018-08-30T12:55:47.807Z,70.4
2018-08-30T12:56:38.113Z,70.5
2018-08-30T12:57:27.710Z,70.5
2018-08-30T12:58:19.391Z,70.4
2018-08-30T12:59:08.327Z,70.4
2018-08-30T12:59:58.872Z,70.3
2018-08-30T13:00:47.787Z,70.3
2018-08-30T13:01:38.606Z,70.2
2018-08-30T13:02:28.264Z,70.1
2018-08-30T13:03:19.639Z,70
2018-08-30T13:04:08.124Z,70
2018-08-30T13:04:59.696Z,69.9
2018-08-30T13:05:51.035Z,69.9
2018-08-30T13:06:38.474Z,69.9
2018-08-30T13:07:29.286Z,69.8
2018-08-30T13:08:20.352Z,69.6
2018-08-30T13:09:10.996Z,69.5
2018-08-30T13:10:00.213Z,69.3
2018-08-30T13:10:51.478Z,69.1
2018-08-30T13:11:39.584Z,68.9
2018-08-30T13:12:31.292Z,68.8
2018-08-30T13:13:19.722Z,68.6
2018-08-30T13:14:10.991Z,68.4
2018-08-30T13:14:59.492Z,68.3
2018-08-30T13:15:48.680Z,68.1
2018-08-30T13:16:40.210Z,67.9
2018-08-30T13:17:31.036Z,67.7
2018-08-30T13:18:20.795Z,67.4
2018-08-30T13:19:12.196Z,67.1
2018-08-30T13:20:00.942Z,66.9
2018-08-30T13:20:51.242Z,66.9
2018-08-30T13:21:40.907Z,67.3
2018-08-30T13:22:32.537Z,67.9
2018-08-30T13:23:21.673Z,68.8
2018-08-30T13:24:10.484Z,69.4
2018-08-30T13:25:03.750Z,70.1
2018-08-30T13:25:52.115Z,70.8
2018-08-30T13:26:40.342Z,71.4
2018-08-30T13:27:32.637Z,71.6
2018-08-30T13:28:21.456Z,72
2018-08-30T13:29:11.471Z,72.5
2018-08-30T13:30:01.188Z,72.9
2018-08-30T13:30:53.018Z,74.1
2018-08-30T13:31:43.599Z,74.8
2018-08-30T13:32:33.185Z,73.1
2018-08-30T13:33:25.948Z,71.1
2018-08-30T13:34:13.929Z,68.3
2018-08-30T13:35:05.086Z,66.6
2018-08-30T13:35:53.349Z,66.1
2018-08-30T13:36:44.108Z,65.8
2018-08-30T13:37:31.073Z,65.9
2018-08-30T13:38:22.469Z,66.1
2018-08-30T13:39:13.435Z,66.4
2018-08-30T13:40:04.801Z,66.8
2018-08-30T13:40:53.048Z,67.3
2018-08-30T13:41:42.878Z,67.8
2018-08-30T13:42:34.858Z,68.3
2018-08-30T13:43:23.630Z,68.8
2018-08-30T13:44:14.497Z,69.3
2018-08-30T13:45:04.951Z,69.6
2018-08-30T13:45:54.785Z,70
2018-08-30T13:46:42.549Z,70.3
2018-08-30T13:47:34.517Z,70.5
2018-08-30T13:48:23.270Z,70.8
2018-08-30T13:49:13.807Z,70.9
2018-08-30T13:50:04.644Z,70.9
2018-08-30T13:50:55.261Z,71.2
2018-08-30T13:51:44.583Z,71.4
2018-08-30T13:52:31.116Z,71.6
2018-08-30T13:53:25.839Z,71.7
2018-08-30T13:54:15.966Z,71.8
2018-08-30T13:55:03.924Z,71.9
2018-08-30T13:55:54.749Z,72
2018-08-30T13:56:45.057Z,72.1
2018-08-30T13:57:37.953Z,72.2
2018-08-30T13:58:25.691Z,72.2
2018-08-30T13:59:17.096Z,72.1
2018-08-30T14:00:06.966Z,72.1
2018-08-30T14:00:57.302Z,72
2018-08-30T14:01:45.659Z,72.1
2018-08-30T14:02:34.062Z,72
2018-08-30T14:03:24.298Z,72.1
2018-08-30T14:04:15.499Z,72
2018-08-30T14:05:05.183Z,72
2018-08-30T14:05:54.703Z,72
2018-08-30T14:06:45.418Z,71.9
2018-08-30T14:07:34.055Z,71.8
2018-08-30T14:08:24.629Z,71.8
2018-08-30T14:09:14.897Z,71.6
2018-08-30T14:10:07.639Z,71.4
2018-08-30T14:10:55.708Z,71.3
2018-08-30T14:11:47.255Z,71.1
2018-08-30T14:12:34.762Z,70.9
2018-08-30T14:13:25.171Z,70.8
2018-08-30T14:14:14.942Z,70.7
2018-08-30T14:15:06.948Z,70.6
2018-08-30T14:15:53.416Z,70.4
2018-08-30T14:16:44.062Z,70.4
2018-08-30T14:17:33.293Z,70.1
2018-08-30T14:18:23.790Z,70
2018-08-30T14:19:14.063Z,69.9
2018-08-30T14:20:03.937Z,69.6
2018-08-30T14:20:53.812Z,69.4
2018-08-30T14:21:44.004Z,69.3
2018-08-30T14:22:33.983Z,69.1
2018-08-30T14:23:24.556Z,68.9
2018-08-30T14:24:13.827Z,68.8
2018-08-30T14:25:04.684Z,68.6
2018-08-30T14:25:53.841Z,68.4
2018-08-30T14:26:44.749Z,68.1
2018-08-30T14:27:34.031Z,67.8
2018-08-30T14:28:23.906Z,67.5
2018-08-30T14:29:14.223Z,67.3
2018-08-30T14:30:04.176Z,67.2
2018-08-30T14:30:54.601Z,67.1
2018-08-30T14:31:44.641Z,66.9
2018-08-30T14:32:34.711Z,66.6
2018-08-30T14:33:24.491Z,66.4
2018-08-30T14:34:14.817Z,66.3
2018-08-30T14:35:05.029Z,65.9
2018-08-30T14:35:54.803Z,65.8
2018-08-30T14:36:45.042Z,65.4
2018-08-30T14:37:35.317Z,65.3
2018-08-30T14:38:25.250Z,65
2018-08-30T14:39:15.866Z,64.8
2018-08-30T14:40:05.333Z,64.6
2018-08-30T14:41:10.503Z,64.3
2018-08-30T14:41:46.384Z,63.9
2018-08-30T14:42:35.398Z,63.8
2018-08-30T14:43:25.308Z,63.6
2018-08-30T14:44:15.640Z,63.4
2018-08-30T14:45:05.764Z,63.1
2018-08-30T14:45:55.923Z,62.9
2018-08-30T14:46:45.804Z,62.6
2018-08-30T14:47:37.473Z,62.4
2018-08-30T14:48:26.017Z,62.1
2018-08-30T14:49:15.944Z,61.9
2018-08-30T14:50:05.793Z,61.6
2018-08-30T14:50:56.178Z,61.4
2018-08-30T14:51:46.337Z,61.1
2018-08-30T14:52:35.727Z,60.8
2018-08-30T14:53:27.587Z,60.6
2018-08-30T14:54:16.753Z,60.2
2018-08-30T14:55:06.153Z,60
2018-08-30T14:55:56.719Z,59.8
2018-08-30T14:56:46.644Z,59.5
2018-08-30T14:57:36.417Z,59.3
2018-08-30T14:58:26.685Z,58.9
2018-08-30T15:00:07.296Z,58.3
2018-08-30T15:00:55.783Z,58.1
2018-08-30T15:01:46.671Z,57.8
2018-08-30T15:02:37.089Z,57.6
2018-08-30T15:03:26.887Z,57.3
2018-08-30T15:04:17.171Z,57.1
2018-08-30T15:05:07.208Z,56.8
2018-08-30T15:05:57.909Z,56.5
2018-08-30T15:06:47.362Z,56.1
2018-08-30T15:07:37.122Z,55.9
2018-08-30T15:08:27.263Z,55.7
2018-08-30T15:09:17.534Z,55.4
2018-08-30T15:10:07.061Z,55.2
2018-08-30T15:10:57.408Z,54.9
2018-08-30T15:11:47.822Z,54.6
2018-08-30T15:12:38.324Z,54.4
2018-08-30T15:13:28.049Z,54.2
2018-08-30T15:14:18.177Z,54
2018-08-30T15:15:08.036Z,53.7
2018-08-30T15:15:58.105Z,53.4
2018-08-30T15:16:48.186Z,53.2
2018-08-30T15:17:37.938Z,52.9
2018-08-30T15:18:28.296Z,52.7
2018-08-30T15:19:18.376Z,52.4
2018-08-30T15:20:09.290Z,52.2
2018-08-30T15:21:48.603Z,51.8
2018-08-30T15:22:38.716Z,51.6
2018-08-30T15:23:29.162Z,51.3
2018-08-30T15:24:18.489Z,51.1
2018-08-30T15:25:08.516Z,50.9
2018-08-30T15:25:58.064Z,50.7
2018-08-30T15:26:49.643Z,50.5
2018-08-30T15:27:38.512Z,50.3
2018-08-30T15:28:29.032Z,50.1
2018-08-30T15:29:20.117Z,49.8
2018-08-30T15:30:08.903Z,49.6
2018-08-30T15:30:59.254Z,49.4
2018-08-30T15:31:49.107Z,49.2
2018-08-30T15:32:39.176Z,49
2018-08-30T15:33:29.490Z,48.8
2018-08-30T15:34:19.256Z,48.6
2018-08-30T15:35:10.991Z,48.3
2018-08-30T15:35:59.377Z,47.9
2018-08-30T15:36:49.897Z,47.6
2018-08-30T15:37:39.277Z,47.4
2018-08-30T15:38:31.015Z,47.1
2018-08-30T15:39:19.934Z,46.8
2018-08-30T15:40:24.728Z,46.7
2018-08-30T15:40:59.867Z,46.4
2018-08-30T15:41:50.226Z,46.3
2018-08-30T15:42:40.267Z,46.1
2018-08-30T15:43:30.359Z,45.8
2018-08-30T15:44:20.136Z,45.4
2018-08-30T15:45:09.992Z,45.2
2018-08-30T15:46:00.504Z,45
2018-08-30T15:46:50.486Z,44.8
2018-08-30T15:47:40.326Z,44.6
2018-08-30T15:48:30.530Z,44.4
2018-08-30T15:49:20.840Z,44.1
2018-08-30T15:50:10.886Z,43.9
2018-08-30T15:51:00.909Z,43.6
2018-08-30T15:51:50.913Z,43.4
2018-08-30T15:52:40.990Z,43.1
2018-08-30T15:53:31.186Z,42.9
2018-08-30T15:54:21.371Z,42.6
2018-08-30T15:55:11.228Z,42.4
2018-08-30T15:56:01.325Z,42.1
2018-08-30T15:56:51.293Z,41.9
2018-08-30T16:15:36.213Z,37.3
2018-08-30T16:16:26.514Z,37
2018-08-30T16:17:17.703Z,36.9
2018-08-30T16:18:05.761Z,36.6
2018-08-30T16:18:56.650Z,36.5
2018-08-30T16:19:46.551Z,36.3
2018-08-30T16:20:37.001Z,36.1
2018-08-30T16:21:26.899Z,35.9
2018-08-30T16:22:16.709Z,35.8
2018-08-30T16:23:07.289Z,35.6
2018-08-30T16:23:57.063Z,35.4
2018-08-30T16:24:47.347Z,35.3
2018-08-30T16:25:37.006Z,35.1
2018-08-30T16:26:27.278Z,34.9
2018-08-30T16:27:16.754Z,34.8
2018-08-30T16:28:07.516Z,34.7
2018-08-30T16:28:57.977Z,34.6
2018-08-30T16:29:46.951Z,34.4
2018-08-30T16:30:38.270Z,34.3
2018-08-30T16:31:28.444Z,34.1
2018-08-30T16:32:17.288Z,34.1
2018-08-30T16:33:07.225Z,33.9
2018-08-30T16:33:57.858Z,33.7
2018-08-30T16:34:48.166Z,33.6
2018-08-30T16:35:37.996Z,33.4
2018-08-30T16:36:28.140Z,33.4
2018-08-30T16:37:17.900Z,33.2
2018-08-30T16:38:07.702Z,33.1
2018-08-30T16:38:57.680Z,32.9
2018-08-30T16:39:48.668Z,32.8
2018-08-30T16:40:38.369Z,32.8
2018-08-30T16:41:29.208Z,32.6
2018-08-30T16:42:18.264Z,32.5
2018-08-30T16:43:08.797Z,32.4
2018-08-30T16:43:58.664Z,32.3
2018-08-30T16:44:48.779Z,32.2
2018-08-30T16:45:38.212Z,32
2018-08-30T16:46:28.789Z,31.9
2018-08-30T16:47:19.099Z,31.8
2018-08-30T16:48:08.964Z,31.7
2018-08-30T16:48:59.965Z,31.6
2018-08-30T16:49:48.913Z,31.4
2018-08-30T16:50:38.974Z,31.3
2018-08-30T16:51:29.244Z,31.2
2018-08-30T16:52:18.697Z,31.1
2018-08-30T16:53:09.931Z,30.9
2018-08-30T16:53:59.746Z,30.8
2018-08-30T16:54:48.914Z,30.8
2018-08-30T16:55:40.503Z,30.6
2018-08-30T16:56:30.007Z,30.5
2018-08-30T16:57:19.669Z,30.4
2018-08-30T16:58:09.469Z,30.3
2018-08-30T16:58:59.923Z,30.2
2018-08-30T16:59:49.874Z,30.1
2018-08-30T17:00:40.226Z,29.9
2018-08-30T17:01:29.614Z,29.8
2018-08-30T17:02:21.119Z,29.7
2018-08-30T17:03:09.565Z,29.6
2018-08-30T17:04:00.844Z,29.4
2018-08-30T17:04:50.246Z,29.4
2018-08-30T17:05:39.818Z,29.3
2018-08-30T17:06:30.269Z,29.1
2018-08-30T17:07:20.260Z,29
2018-08-30T17:08:09.980Z,28.9
2018-08-30T17:09:00.124Z,28.8
2018-08-30T17:09:50.393Z,28.7
2018-08-30T17:10:39.997Z,28.6
2018-08-30T17:11:29.979Z,28.5
2018-08-30T17:12:20.583Z,28.4
2018-08-30T17:13:11.194Z,28.3
2018-08-30T17:14:00.766Z,28.2
2018-08-30T17:14:50.885Z,28.1
2018-08-30T17:15:41.290Z,27.9
2018-08-30T17:16:31.269Z,27.9
2018-08-30T17:17:21.393Z,27.8
2018-08-30T17:18:11.904Z,27.7
2018-08-30T17:19:00.855Z,27.6
2018-08-30T17:19:51.160Z,27.5
2018-08-30T17:20:41.686Z,27.4
2018-08-30T17:21:32.470Z,27.3
2018-08-30T17:22:21.630Z,27.2
2018-08-30T17:23:11.434Z,27.1
2018-08-30T17:24:01.790Z,27.1
2018-08-30T17:24:52.135Z,26.9
2018-08-30T17:25:41.905Z,26.9
2018-08-30T17:26:31.424Z,26.8
2018-08-30T17:27:21.808Z,26.7
2018-08-30T17:28:12.105Z,26.6
2018-08-30T17:29:02.175Z,26.6
2018-08-30T17:29:51.937Z,26.4
2018-08-30T17:30:42.294Z,26.4
2018-08-30T17:31:32.127Z,26.3
2018-08-30T17:32:21.807Z,26.2
2018-08-30T17:33:12.534Z,26.1
2018-08-30T17:34:02.584Z,26.1
2018-08-30T17:34:52.349Z,25.9
2018-08-30T17:35:42.689Z,25.9
2018-08-30T17:36:32.748Z,25.8
2018-08-30T17:37:22.519Z,25.8
2018-08-30T17:38:12.872Z,25.7
2018-08-30T17:39:02.669Z,25.6
2018-08-30T17:39:52.752Z,25.5
2018-08-30T17:40:43.178Z,25.4
2018-08-30T17:41:33.151Z,25.4
2018-08-30T17:42:24.441Z,25.4
2018-08-30T17:43:13.291Z,25.3
2018-08-30T17:44:03.439Z,25.2
2018-08-30T17:44:53.395Z,25.1
2018-08-30T17:45:43.900Z,25.1
2018-08-30T17:46:33.297Z,25.1
2018-08-30T17:47:23.652Z,25
2018-08-30T17:48:13.750Z,24.9
2018-08-30T17:49:03.471Z,24.9
2018-08-30T17:49:53.883Z,24.8
2018-08-30T17:50:43.868Z,24.8
2018-08-30T17:51:33.472Z,24.7
2018-08-30T17:52:23.725Z,24.7
2018-08-30T17:53:13.721Z,24.6
2018-08-30T17:54:03.835Z,24.6
2018-08-30T17:54:54.178Z,24.6
2018-08-30T17:55:44.278Z,24.5
2018-08-30T17:56:34.344Z,24.5
2018-08-30T17:57:24.136Z,24.4
2018-08-30T17:58:14.600Z,24.4
2018-08-30T17:59:04.521Z,24.3
2018-08-30T17:59:55.163Z,24.3
2018-08-30T18:00:44.407Z,24.3
2018-08-30T18:01:35.286Z,24.2
2018-08-30T18:02:24.501Z,24.2
2018-08-30T18:03:15.689Z,24.1
2018-08-30T18:04:04.744Z,24.1
2018-08-30T18:04:54.709Z,24.1
2018-08-30T18:05:45.096Z,24
2018-08-30T18:06:35.629Z,23.9
2018-08-30T18:07:24.900Z,23.9
2018-08-30T18:08:15.234Z,23.9
2018-08-30T18:09:05.210Z,23.8
2018-08-30T18:09:55.632Z,23.8
2018-08-30T18:10:45.140Z,23.8
2018-08-30T18:11:35.241Z,23.7
2018-08-30T18:12:25.841Z,23.7
2018-08-30T18:13:15.334Z,23.6
2018-08-30T18:14:05.388Z,23.6
2018-08-30T18:14:55.774Z,23.6
2018-08-30T18:15:45.819Z,23.6